Time;durP1;ratioP1;P1;durP2;ratioP2;P2;SDS_P1;SDS_P2;PMS_P1;PMS_P2;Temp;Humidity;BMP_temperature;BMP_pressure;BME280_temperature;BME280_humidity;BME280_pressure;Samples;Min_cycle;Max_cycle;Signal;HPM_P1;HPM_P2
2021/01/09 00:01:01;;;;;;;21.40;11.85;;;0.80;99.90;;;;;;5069649;28;20108;-47
2021/01/09 00:03:26;;;;;;;26.70;11.63;;;0.80;99.90;;;;;;5064192;28;20477;-46
2021/01/09 00:05:53;;;;;;;23.65;12.50;;;0.80;99.90;;;;;;5063020;28;20039;-46
2021/01/09 00:08:21;;;;;;;23.83;11.93;;;0.80;99.90;;;;;;5071078;28;20311;-45
2021/01/09 00:10:48;;;;;;;23.02;12.38;;;0.80;99.90;;;;;;5069395;28;20035;-47
2021/01/09 00:13:14;;;;;;;21.52;11.45;;;0.80;99.90;;;;;;5071042;28;20409;-46
2021/01/09 00:15:39;;;;;;;25.33;11.55;;;0.80;99.90;;;;;;5070195;28;20025;-45
2021/01/09 00:18:05;;;;;;;29.05;13.15;;;0.80;99.90;;;;;;5070833;28;20038;-48
2021/01/09 00:20:30;;;;;;;25.65;12.40;;;0.80;99.90;;;;;;5069158;28;20051;-46
2021/01/09 00:22:56;;;;;;;25.60;13.15;;;0.80;99.90;;;;;;5070515;28;20035;-46
2021/01/09 00:25:21;;;;;;;23.02;11.98;;;0.80;99.90;;;;;;5069644;28;20500;-48
2021/01/09 00:27:48;;;;;;;27.98;13.75;;;0.80;99.90;;;;;;5070504;28;20040;-46
2021/01/09 00:30:16;;;;;;;22.55;12.73;;;0.70;99.90;;;;;;5070171;28;20032;-45
2021/01/09 00:32:41;;;;;;;22.77;12.48;;;0.80;99.90;;;;;;5069272;28;20119;-47
2021/01/09 00:35:07;;;;;;;21.73;11.95;;;0.80;99.90;;;;;;5064702;28;20131;-48
2021/01/09 00:37:33;;;;;;;28.65;12.82;;;0.80;99.90;;;;;;5070383;28;20028;-46
2021/01/09 00:39:59;;;;;;;23.63;12.95;;;0.80;99.90;;;;;;5070060;28;20749;-47
2021/01/09 00:42:24;;;;;;;25.20;12.93;;;0.80;99.90;;;;;;5069810;28;20030;-46
2021/01/09 00:44:50;;;;;;;24.17;11.93;;;0.80;99.90;;;;;;5069454;28;20233;-45
2021/01/09 00:47:15;;;;;;;26.33;12.40;;;0.80;99.90;;;;;;5069774;28;20079;-45
2021/01/09 00:49:41;;;;;;;22.65;11.52;;;0.70;99.90;;;;;;5055832;28;20024;-45
2021/01/09 00:52:06;;;;;;;29.63;12.23;;;0.80;99.90;;;;;;5068483;28;20029;-44
2021/01/09 00:54:32;;;;;;;21.50;11.38;;;0.80;99.90;;;;;;5069008;28;20039;-45
2021/01/09 00:56:58;;;;;;;23.27;11.77;;;0.80;99.90;;;;;;5069659;28;20035;-46
2021/01/09 00:59:24;;;;;;;23.63;11.55;;;0.80;99.90;;;;;;5069698;28;20458;-45
2021/01/09 01:01:50;;;;;;;22.83;11.95;;;0.80;99.90;;;;;;5069985;28;20017;-46
2021/01/09 01:04:16;;;;;;;23.48;12.00;;;0.70;99.90;;;;;;5056058;28;20045;-47
2021/01/09 01:06:41;;;;;;;18.23;10.18;;;0.70;99.90;;;;;;5068440;28;20048;-44
2021/01/09 01:09:07;;;;;;;22.80;11.40;;;0.80;99.90;;;;;;5070102;28;20027;-45
2021/01/09 01:11:32;;;;;;;21.35;10.30;;;0.70;99.90;;;;;;5068303;28;20077;-48
2021/01/09 01:13:58;;;;;;;23.70;10.95;;;0.80;99.90;;;;;;5069681;28;20056;-47
2021/01/09 01:16:25;;;;;;;21.63;11.82;;;0.80;99.90;;;;;;5068936;28;20056;-49
2021/01/09 01:18:51;;;;;;;21.98;11.43;;;0.80;99.90;;;;;;5069828;28;20021;-46
2021/01/09 01:21:17;;;;;;;20.65;11.10;;;0.80;99.90;;;;;;5069245;28;20098;-47
2021/01/09 01:23:42;;;;;;;20.80;10.52;;;0.80;99.90;;;;;;5069286;28;20059;-46
2021/01/09 01:26:12;;;;;;;21.95;10.98;;;0.80;99.90;;;;;;5068779;28;20500;-46
2021/01/09 01:28:38;;;;;;;20.55;11.18;;;0.80;99.90;;;;;;5067868;28;20032;-46
2021/01/09 01:31:05;;;;;;;21.08;11.55;;;0.70;99.90;;;;;;5069491;28;20075;-46
2021/01/09 01:33:30;;;;;;;22.05;10.70;;;0.80;99.90;;;;;;5062618;28;20509;-46
2021/01/09 01:35:56;;;;;;;18.95;10.30;;;0.70;99.90;;;;;;5068048;28;20028;-46
2021/01/09 01:38:22;;;;;;;21.38;10.88;;;0.80;99.90;;;;;;5068752;28;20389;-45
2021/01/09 01:40:48;;;;;;;22.92;10.77;;;0.70;99.90;;;;;;5068949;28;20025;-47
2021/01/09 01:43:14;;;;;;;19.35;10.65;;;0.80;99.90;;;;;;5068890;28;20469;-46
2021/01/09 01:45:41;;;;;;;21.90;11.20;;;0.70;99.90;;;;;;5068204;28;20230;-46
2021/01/09 01:48:08;;;;;;;20.63;9.98;;;0.70;99.90;;;;;;5062064;28;20013;-45
2021/01/09 01:50:34;;;;;;;17.17;9.93;;;0.70;99.90;;;;;;5061227;28;20417;-45
2021/01/09 01:53:00;;;;;;;19.70;11.13;;;0.70;99.90;;;;;;5068328;28;20116;-48
2021/01/09 01:55:26;;;;;;;23.15;11.50;;;0.70;99.90;;;;;;5068017;28;20021;-47
2021/01/09 01:57:51;;;;;;;18.85;10.55;;;0.70;99.90;;;;;;5065865;28;20044;-45
2021/01/09 02:00:19;;;;;;;20.40;10.30;;;0.70;99.90;;;;;;5057049;28;20040;-47
2021/01/09 02:02:45;;;;;;;21.52;11.05;;;0.70;99.90;;;;;;5066216;28;20017;-46
2021/01/09 02:05:11;;;;;;;20.10;10.25;;;0.70;99.90;;;;;;5058947;28;20025;-46
2021/01/09 02:07:41;;;;;;;20.83;10.60;;;0.70;99.90;;;;;;5062768;28;20078;-45
2021/01/09 02:10:08;;;;;;;22.45;11.00;;;0.70;99.90;;;;;;5064558;28;20075;-46
2021/01/09 02:12:48;;;;;;;20.25;10.38;;;0.70;99.90;;;;;;5066779;28;20028;-48
2021/01/09 02:15:16;;;;;;;23.20;11.95;;;0.70;99.90;;;;;;5061444;28;20027;-48
2021/01/09 02:17:43;;;;;;;19.13;9.90;;;0.70;99.90;;;;;;5062950;28;20032;-46
2021/01/09 02:20:10;;;;;;;21.02;10.23;;;0.70;99.90;;;;;;5059545;28;20029;-45
2021/01/09 02:22:43;;;;;;;21.92;11.63;;;0.70;99.90;;;;;;5064569;28;20027;-46
2021/01/09 02:25:09;;;;;;;19.60;9.80;;;0.70;99.90;;;;;;5062611;28;20019;-46
2021/01/09 02:27:34;;;;;;;23.85;11.65;;;0.70;99.90;;;;;;5065295;28;20113;-47
2021/01/09 02:30:18;;;;;;;21.20;10.43;;;0.70;99.90;;;;;;5066617;28;20028;-49
2021/01/09 02:33:09;;;;;;;20.35;10.65;;;0.70;99.90;;;;;;5061731;28;20051;-49
2021/01/09 02:35:36;;;;;;;21.83;10.43;;;0.70;99.90;;;;;;5058073;28;20540;-47
2021/01/09 02:38:01;;;;;;;22.13;11.25;;;0.70;99.90;;;;;;5064237;28;20086;-46
2021/01/09 02:40:27;;;;;;;22.20;10.93;;;0.70;99.90;;;;;;5062098;28;20038;-47
2021/01/09 02:42:53;;;;;;;24.85;11.73;;;0.70;99.90;;;;;;5065591;28;20320;-49
2021/01/09 02:45:18;;;;;;;23.25;11.63;;;0.70;99.90;;;;;;5064963;28;20028;-46
2021/01/09 02:47:44;;;;;;;23.38;10.93;;;0.70;99.90;;;;;;5065722;28;20490;-49
2021/01/09 02:50:10;;;;;;;22.30;11.45;;;0.70;99.90;;;;;;5064579;28;20028;-48
2021/01/09 02:52:40;;;;;;;22.38;11.82;;;0.70;99.90;;;;;;5063361;28;20039;-46
2021/01/09 02:55:07;;;;;;;24.02;10.23;;;0.70;99.90;;;;;;5065057;28;20025;-46
2021/01/09 02:57:33;;;;;;;23.67;11.05;;;0.70;99.90;;;;;;5069049;28;20024;-46
2021/01/09 02:59:59;;;;;;;19.80;10.73;;;0.70;99.90;;;;;;5040529;28;20084;-46
2021/01/09 03:02:24;;;;;;;22.30;10.98;;;0.70;99.90;;;;;;5045961;28;20021;-46
2021/01/09 03:04:50;;;;;;;20.77;10.57;;;0.70;99.90;;;;;;5041155;28;20492;-48
2021/01/09 03:07:15;;;;;;;22.20;10.82;;;0.70;99.90;;;;;;5042764;28;20021;-46
2021/01/09 03:09:41;;;;;;;22.08;10.90;;;0.70;99.90;;;;;;5043594;28;20456;-46
2021/01/09 03:12:07;;;;;;;24.08;12.02;;;0.70;99.90;;;;;;5041925;28;20021;-45
2021/01/09 03:14:33;;;;;;;19.13;10.77;;;0.70;99.90;;;;;;5045243;28;20104;-45
2021/01/09 03:16:58;;;;;;;22.63;11.18;;;0.70;99.90;;;;;;5039828;28;20562;-45
2021/01/09 03:19:23;;;;;;;19.80;10.48;;;0.70;99.90;;;;;;5045330;28;20031;-45
2021/01/09 03:21:49;;;;;;;22.40;10.80;;;0.70;99.90;;;;;;5041379;28;20026;-46
2021/01/09 03:24:15;;;;;;;20.70;10.85;;;0.70;99.90;;;;;;5044047;28;20049;-45
2021/01/09 03:26:41;;;;;;;23.58;11.13;;;0.70;99.90;;;;;;5042971;28;20626;-46
2021/01/09 03:29:06;;;;;;;21.42;10.20;;;0.70;99.90;;;;;;5041942;28;20052;-45
2021/01/09 03:31:32;;;;;;;21.35;10.70;;;0.70;99.90;;;;;;5045828;28;20029;-46
2021/01/09 03:33:57;;;;;;;21.30;10.20;;;0.70;99.90;;;;;;5044229;28;20021;-45
2021/01/09 03:36:23;;;;;;;21.42;10.82;;;0.80;99.90;;;;;;5044378;28;20089;-45
2021/01/09 03:38:48;;;;;;;25.52;11.80;;;0.80;99.90;;;;;;5041332;28;20029;-47
2021/01/09 03:41:14;;;;;;;20.52;10.45;;;0.80;99.90;;;;;;5043279;28;20028;-47
2021/01/09 03:43:39;;;;;;;23.98;11.63;;;0.80;99.90;;;;;;5049480;28;20025;-46
2021/01/09 03:46:05;;;;;;;22.77;11.95;;;0.70;99.90;;;;;;5040673;28;20029;-47
2021/01/09 03:48:30;;;;;;;23.35;11.05;;;0.70;99.90;;;;;;5047175;28;20033;-47
2021/01/09 03:50:56;;;;;;;25.35;10.85;;;0.80;99.90;;;;;;5066490;28;20035;-47
2021/01/09 03:53:21;;;;;;;22.48;11.93;;;0.70;99.90;;;;;;5070890;28;20068;-46
2021/01/09 03:55:47;;;;;;;21.30;10.40;;;0.70;99.90;;;;;;5070059;28;20078;-46
2021/01/09 03:58:12;;;;;;;25.23;11.52;;;0.70;99.90;;;;;;5070922;28;20035;-47
2021/01/09 04:00:38;;;;;;;22.77;12.07;;;0.80;99.90;;;;;;5071004;28;20024;-49
2021/01/09 04:03:03;;;;;;;21.45;10.82;;;0.70;99.90;;;;;;5070645;28;20016;-47
2021/01/09 04:05:29;;;;;;;24.80;11.60;;;0.70;99.90;;;;;;5070013;28;20029;-47
2021/01/09 04:07:54;;;;;;;23.70;11.18;;;0.70;99.90;;;;;;5069374;28;20028;-47
2021/01/09 04:10:20;;;;;;;23.30;10.98;;;0.70;99.90;;;;;;5070651;28;20450;-46
2021/01/09 04:12:45;;;;;;;25.38;12.70;;;0.70;99.90;;;;;;5070742;28;20024;-45
2021/01/09 04:15:11;;;;;;;25.17;11.98;;;0.70;99.90;;;;;;5070069;28;20058;-46
2021/01/09 04:17:37;;;;;;;24.38;11.60;;;0.70;99.90;;;;;;5070687;28;20497;-46
2021/01/09 04:20:03;;;;;;;23.48;12.13;;;0.70;99.90;;;;;;5070581;28;20029;-47
2021/01/09 04:22:28;;;;;;;25.15;12.20;;;0.70;99.90;;;;;;5070339;28;20021;-47
2021/01/09 04:24:54;;;;;;;26.63;13.15;;;0.70;99.90;;;;;;5069808;28;20032;-45
2021/01/09 04:27:19;;;;;;;25.05;11.65;;;0.70;99.90;;;;;;5071032;28;20321;-46
2021/01/09 04:29:45;;;;;;;27.70;12.35;;;0.70;99.90;;;;;;5070879;28;20032;-49
2021/01/09 04:32:10;;;;;;;27.40;13.52;;;0.70;99.90;;;;;;5070453;28;20477;-47
2021/01/09 04:34:36;;;;;;;23.17;11.07;;;0.70;99.90;;;;;;5064814;28;20032;-46
2021/01/09 04:37:02;;;;;;;31.63;13.45;;;0.70;99.90;;;;;;5070013;28;20027;-46
2021/01/09 04:39:28;;;;;;;26.23;12.48;;;0.70;99.90;;;;;;5070158;28;20274;-46
2021/01/09 04:41:53;;;;;;;29.10;12.95;;;0.80;99.90;;;;;;5068783;28;20053;-48
2021/01/09 04:44:19;;;;;;;26.58;12.98;;;0.70;99.90;;;;;;5070135;28;20035;-46
2021/01/09 04:46:50;;;;;;;28.63;13.30;;;0.70;99.90;;;;;;5069670;28;20043;-46
2021/01/09 04:49:17;;;;;;;26.08;12.85;;;0.70;99.90;;;;;;5047908;28;20029;-46
2021/01/09 04:51:43;;;;;;;31.33;13.68;;;0.80;99.90;;;;;;5069754;28;20033;-46
2021/01/09 04:54:13;;;;;;;29.23;13.07;;;0.80;99.90;;;;;;5069506;28;20033;-46
2021/01/09 04:56:39;;;;;;;32.70;14.93;;;0.70;99.90;;;;;;5069309;28;20024;-47
2021/01/09 04:59:05;;;;;;;31.33;13.30;;;0.80;99.90;;;;;;5069992;28;20048;-46
2021/01/09 05:01:30;;;;;;;29.10;14.00;;;0.70;99.90;;;;;;5069711;28;20434;-46
2021/01/09 05:03:56;;;;;;;34.08;14.95;;;0.70;99.90;;;;;;5068398;28;20359;-46
2021/01/09 05:06:22;;;;;;;32.90;14.70;;;0.70;99.90;;;;;;5068587;28;20555;-49
2021/01/09 05:08:48;;;;;;;36.70;15.88;;;0.70;99.90;;;;;;5069551;28;20025;-47
2021/01/09 05:11:18;;;;;;;31.08;14.73;;;0.70;99.90;;;;;;5069541;28;20132;-48
2021/01/09 05:13:45;;;;;;;31.40;14.73;;;0.80;99.90;;;;;;5069587;28;20020;-47
2021/01/09 05:16:11;;;;;;;29.42;14.02;;;0.70;99.90;;;;;;5067550;28;20101;-47
2021/01/09 05:18:38;;;;;;;30.80;14.23;;;0.70;99.90;;;;;;5069311;28;20388;-47
2021/01/09 05:21:11;;;;;;;33.55;14.75;;;0.70;99.90;;;;;;5068909;28;20474;-48
2021/01/09 05:23:51;;;;;;;37.03;15.98;;;0.80;99.90;;;;;;5069537;28;20469;-47
2021/01/09 05:26:20;;;;;;;37.60;16.30;;;0.80;99.90;;;;;;5068959;28;20035;-46
2021/01/09 05:28:48;;;;;;;32.92;15.13;;;0.70;99.90;;;;;;5069475;28;20086;-46
2021/01/09 05:31:15;;;;;;;39.60;16.40;;;0.80;99.90;;;;;;5069407;28;20028;-46
2021/01/09 05:33:41;;;;;;;33.50;16.05;;;0.70;99.90;;;;;;5063712;28;20158;-46
2021/01/09 05:36:08;;;;;;;36.78;16.13;;;0.80;99.90;;;;;;5066717;28;20367;-49
2021/01/09 05:38:35;;;;;;;35.42;16.05;;;0.70;99.90;;;;;;5067331;28;20077;-47
2021/01/09 05:41:05;;;;;;;35.83;15.27;;;0.70;99.90;;;;;;5068891;28;20024;-46
2021/01/09 05:43:31;;;;;;;42.58;17.48;;;0.70;99.90;;;;;;5068808;28;20028;-47
2021/01/09 05:45:58;;;;;;;36.78;15.10;;;0.70;99.90;;;;;;5068173;28;20198;-46
2021/01/09 05:48:25;;;;;;;39.40;17.02;;;0.70;99.90;;;;;;5059612;28;20230;-45
2021/01/09 05:50:52;;;;;;;37.85;15.98;;;0.70;99.90;;;;;;5063496;28;20355;-45
2021/01/09 05:53:37;;;;;;;36.83;15.35;;;0.70;99.90;;;;;;5068765;28;20025;-46
2021/01/09 05:56:03;;;;;;;39.83;15.13;;;0.80;99.90;;;;;;5067920;28;20145;-48
2021/01/09 05:58:31;;;;;;;40.80;17.25;;;0.80;99.90;;;;;;5068306;28;20052;-48
2021/01/09 06:00:58;;;;;;;43.45;16.88;;;0.80;99.90;;;;;;5068205;28;20036;-46
2021/01/09 06:03:40;;;;;;;42.25;16.65;;;0.80;99.90;;;;;;5060829;28;20414;-46
2021/01/09 06:06:15;;;;;;;37.17;15.00;;;0.80;99.90;;;;;;5060839;28;20027;-48
2021/01/09 06:08:49;;;;;;;47.45;16.20;;;0.80;99.90;;;;;;5067459;28;20649;-46
2021/01/09 06:11:18;;;;;;;37.97;15.85;;;0.80;99.90;;;;;;5066872;28;20520;-47
2021/01/09 06:13:47;;;;;;;41.35;15.88;;;0.70;99.90;;;;;;5068436;28;20074;-46
2021/01/09 06:16:14;;;;;;;36.72;15.80;;;0.70;99.90;;;;;;5067711;28;20051;-46
2021/01/09 06:18:39;;;;;;;43.78;16.88;;;0.80;99.90;;;;;;5054405;28;20100;-47
2021/01/09 06:21:08;;;;;;;32.58;14.70;;;0.80;99.90;;;;;;5068571;28;20630;-49
2021/01/09 06:23:33;;;;;;;32.78;14.00;;;0.80;99.90;;;;;;5068307;28;20013;-49
2021/01/09 06:25:59;;;;;;;33.75;14.93;;;0.80;99.90;;;;;;5062798;28;20394;-49
2021/01/09 06:28:31;;;;;;;39.28;14.88;;;0.80;99.90;;;;;;5064373;28;20036;-48
2021/01/09 06:31:00;;;;;;;32.63;13.85;;;0.80;99.90;;;;;;5067393;28;20464;-49
2021/01/09 06:33:30;;;;;;;32.53;14.55;;;0.80;99.90;;;;;;5068103;28;20025;-47
2021/01/09 06:35:58;;;;;;;;;;;0.80;99.90;;;;;;5067815;28;20067;-48
2021/01/09 06:38:24;;;;;;;33.42;13.02;;;0.80;99.90;;;;;;5068058;28;19971;-47
2021/01/09 06:40:50;;;;;;;34.53;14.23;;;0.70;99.90;;;;;;5068401;28;20278;-46
2021/01/09 06:43:17;;;;;;;31.10;13.23;;;0.80;99.90;;;;;;5068555;28;20029;-47
2021/01/09 06:45:43;;;;;;;35.58;14.60;;;0.80;99.90;;;;;;5067543;28;20052;-49
2021/01/09 06:48:10;;;;;;;36.03;14.50;;;0.80;99.90;;;;;;5061332;28;20048;-50
2021/01/09 06:50:36;;;;;;;33.55;13.55;;;0.80;99.90;;;;;;5061122;28;20112;-47
2021/01/09 06:53:02;;;;;;;33.22;15.20;;;0.80;99.90;;;;;;5067477;28;20099;-47
2021/01/09 06:55:36;;;;;;;35.90;14.68;;;0.80;99.90;;;;;;5066832;28;20024;-46
2021/01/09 06:58:09;;;;;;;33.58;14.27;;;0.80;99.90;;;;;;5061339;28;20032;-46
2021/01/09 07:00:36;;;;;;;35.53;15.07;;;0.80;99.90;;;;;;5063540;28;20444;-46
2021/01/09 07:03:12;;;;;;;38.88;15.45;;;0.80;99.90;;;;;;5057326;28;20682;-49
2021/01/09 07:05:44;;;;;;;41.08;14.23;;;0.90;99.90;;;;;;5062608;28;20551;-50
2021/01/09 07:08:11;;;;;;;37.03;14.75;;;0.90;99.90;;;;;;5059421;28;20075;-47
2021/01/09 07:10:52;;;;;;;34.90;13.50;;;0.90;99.90;;;;;;5064336;28;20024;-48
2021/01/09 07:13:20;;;;;;;33.88;14.57;;;0.90;99.90;;;;;;5059285;28;20052;-48
2021/01/09 07:15:46;;;;;;;34.88;14.38;;;0.90;99.90;;;;;;5062199;28;20060;-46
2021/01/09 07:18:12;;;;;;;39.55;16.65;;;0.90;99.90;;;;;;5057751;28;20021;-46
2021/01/09 07:20:52;;;;;;;34.70;15.73;;;0.90;99.90;;;;;;5048829;28;20508;-47
2021/01/09 07:23:21;;;;;;;37.42;15.50;;;0.80;99.90;;;;;;5059422;28;20029;-46
2021/01/09 07:25:48;;;;;;;31.55;14.27;;;0.90;99.90;;;;;;5060022;28;20024;-46
2021/01/09 07:28:22;;;;;;;41.95;15.18;;;0.90;99.90;;;;;;5063834;28;20094;-47
2021/01/09 07:31:03;;;;;;;37.72;15.10;;;0.90;99.90;;;;;;5061136;28;20024;-46
2021/01/09 07:33:32;;;;;;;42.10;15.68;;;0.90;99.90;;;;;;5062226;28;20042;-46
2021/01/09 07:35:59;;;;;;;38.03;15.13;;;0.90;99.90;;;;;;5032190;28;20475;-47
2021/01/09 07:38:25;;;;;;;39.25;15.30;;;0.90;99.90;;;;;;5037512;28;20167;-47
2021/01/09 07:40:53;;;;;;;38.53;14.98;;;0.90;99.90;;;;;;5032926;28;20028;-46
2021/01/09 07:43:44;;;;;;;40.53;17.27;;;0.90;99.90;;;;;;5038893;28;20028;-46
2021/01/09 07:46:30;;;;;;;40.10;14.93;;;0.90;99.90;;;;;;5042418;28;20014;-46
2021/01/09 07:49:00;;;;;;;40.83;15.25;;;0.90;99.90;;;;;;5044400;28;20134;-46
2021/01/09 07:51:51;;;;;;;48.85;17.25;;;0.90;99.90;;;;;;5070659;28;20036;-45
2021/01/09 07:54:36;;;;;;;42.35;16.13;;;0.90;99.90;;;;;;5070759;28;20040;-46
2021/01/09 07:57:23;;;;;;;42.88;16.23;;;0.90;99.90;;;;;;5068509;28;20386;-46
2021/01/09 07:59:54;;;;;;;45.03;16.52;;;0.90;99.90;;;;;;5070676;28;20064;-45
2021/01/09 08:02:27;;;;;;;45.08;16.75;;;1.00;99.90;;;;;;5071078;28;20021;-46
2021/01/09 08:05:13;;;;;;;44.33;16.77;;;1.00;99.90;;;;;;5070590;28;20066;-49
2021/01/09 08:07:50;;;;;;;44.33;16.23;;;1.00;99.90;;;;;;5070806;28;20040;-45
2021/01/09 08:10:20;;;;;;;45.60;16.77;;;1.00;99.90;;;;;;5070829;28;20032;-45
2021/01/09 08:12:52;;;;;;;49.60;17.20;;;1.00;99.90;;;;;;5070990;28;20644;-45
2021/01/09 08:15:18;;;;;;;44.75;16.52;;;1.00;99.90;;;;;;5070384;28;20259;-46
2021/01/09 08:17:43;;;;;;;46.75;18.13;;;1.00;99.90;;;;;;5070572;28;20040;-46
2021/01/09 08:20:11;;;;;;;45.42;17.23;;;1.00;99.90;;;;;;5070606;28;20021;-48
2021/01/09 08:22:38;;;;;;;45.75;17.70;;;1.00;99.90;;;;;;5070407;28;20031;-46
2021/01/09 08:25:08;;;;;;;47.45;17.90;;;1.00;99.90;;;;;;5070004;28;20027;-45
2021/01/09 08:27:33;;;;;;;48.10;18.73;;;1.00;99.90;;;;;;5062784;28;20555;-49
2021/01/09 08:29:59;;;;;;;52.78;19.17;;;1.10;99.90;;;;;;5070142;28;20294;-47
2021/01/09 08:32:26;;;;;;;51.20;17.85;;;1.10;99.90;;;;;;5070246;28;20033;-46
2021/01/09 08:34:53;;;;;;;51.58;18.33;;;1.10;99.90;;;;;;5068655;28;20030;-46
2021/01/09 08:37:19;;;;;;;43.83;16.95;;;1.10;99.90;;;;;;5069769;28;20027;-46
2021/01/09 08:39:45;;;;;;;51.70;17.92;;;1.10;99.90;;;;;;5070175;28;20027;-47
2021/01/09 08:42:15;;;;;;;47.53;18.02;;;1.10;99.90;;;;;;5069825;28;20029;-48
2021/01/09 08:44:46;;;;;;;44.40;17.83;;;1.10;99.90;;;;;;5069653;28;20543;-48
2021/01/09 08:47:13;;;;;;;47.33;17.92;;;1.20;99.90;;;;;;5070193;28;20036;-46
2021/01/09 08:49:43;;;;;;;53.75;18.25;;;1.10;99.90;;;;;;5056125;28;20540;-50
2021/01/09 08:52:10;;;;;;;46.75;18.70;;;1.20;99.90;;;;;;5069763;28;20032;-45
2021/01/09 08:54:39;;;;;;;48.13;18.45;;;1.20;99.90;;;;;;5050170;28;20033;-48
2021/01/09 08:57:06;;;;;;;44.92;17.95;;;1.20;99.90;;;;;;5059944;28;20430;-46
2021/01/09 08:59:33;;;;;;;44.55;17.77;;;1.20;99.90;;;;;;5069572;28;20112;-47
2021/01/09 09:02:01;;;;;;;50.70;17.75;;;1.20;99.90;;;;;;5069618;28;20400;-46
2021/01/09 09:04:27;;;;;;;48.80;17.90;;;1.20;99.90;;;;;;5068961;28;20063;-46
2021/01/09 09:07:04;;;;;;;44.22;17.98;;;1.20;99.90;;;;;;5055317;28;20022;-47
2021/01/09 09:09:32;;;;;;;44.40;17.15;;;1.20;99.90;;;;;;5032027;28;20095;-49
2021/01/09 09:11:57;;;;;;;54.50;17.70;;;1.20;99.90;;;;;;5031163;28;20262;-47
2021/01/09 09:14:25;;;;;;;42.65;16.88;;;1.30;99.90;;;;;;5030039;28;20029;-48
2021/01/09 09:16:59;;;;;;;45.00;17.35;;;1.20;99.90;;;;;;5030368;28;20128;-47
2021/01/09 09:19:24;;;;;;;42.13;17.50;;;1.20;99.90;;;;;;5030666;28;20024;-49
2021/01/09 09:21:57;;;;;;;46.33;18.52;;;1.30;99.90;;;;;;5029992;28;20017;-47
2021/01/09 09:24:37;;;;;;;39.40;16.38;;;1.30;99.90;;;;;;5030289;28;20108;-46
2021/01/09 09:27:30;;;;;;;46.92;18.33;;;1.30;99.90;;;;;;5036937;28;20071;-47
2021/01/09 09:30:28;;;;;;;50.25;18.88;;;1.30;99.90;;;;;;5031734;28;20275;-47
2021/01/09 09:32:54;;;;;;;49.97;18.83;;;1.30;99.90;;;;;;5018633;28;20044;-49
2021/01/09 09:35:27;;;;;;;40.00;16.90;;;1.30;99.90;;;;;;5030855;28;20337;-48
2021/01/09 09:37:55;;;;;;;52.92;18.67;;;1.30;99.90;;;;;;5029974;28;20030;-47
2021/01/09 09:40:26;;;;;;;49.05;18.75;;;1.30;99.90;;;;;;5065255;28;20020;-47
2021/01/09 09:42:53;;;;;;;47.53;19.77;;;1.30;99.90;;;;;;5059450;28;20041;-50
2021/01/09 09:45:19;;;;;;;56.83;20.45;;;1.40;99.90;;;;;;5040064;28;20051;-47
2021/01/09 09:47:49;;;;;;;47.95;19.17;;;1.30;99.90;;;;;;5038982;28;20099;-47
2021/01/09 09:50:19;;;;;;;53.90;20.25;;;1.30;99.90;;;;;;5057248;28;20492;-46
2021/01/09 09:52:59;;;;;;;48.25;18.58;;;1.40;99.90;;;;;;5068025;28;20036;-50
2021/01/09 09:55:25;;;;;;;47.40;19.50;;;1.40;99.90;;;;;;5068013;28;20044;-50
2021/01/09 09:58:08;;;;;;;51.88;19.58;;;1.40;99.90;;;;;;5066055;28;20033;-48
2021/01/09 10:00:43;;;;;;;52.42;20.10;;;1.40;99.90;;;;;;5061216;28;20024;-48
2021/01/09 10:03:09;;;;;;;54.75;21.20;;;1.50;99.90;;;;;;5064538;28;20033;-46
2021/01/09 10:05:35;;;;;;;53.08;20.77;;;1.50;99.90;;;;;;5067584;28;20077;-47
2021/01/09 10:08:09;;;;;;;52.95;20.17;;;1.50;99.90;;;;;;5066608;28;20252;-47
2021/01/09 10:10:36;;;;;;;59.60;21.88;;;1.40;99.90;;;;;;5058784;28;20077;-47
2021/01/09 10:13:01;;;;;;;55.30;21.90;;;1.40;99.90;;;;;;5034996;28;20021;-47
2021/01/09 10:15:27;;;;;;;51.90;20.73;;;1.40;99.90;;;;;;5032625;28;20029;-48
2021/01/09 10:17:54;;;;;;;58.70;21.85;;;1.40;99.90;;;;;;5037680;28;20517;-49
2021/01/09 10:20:20;;;;;;;57.38;22.92;;;1.40;99.90;;;;;;5037568;28;20037;-50
2021/01/09 10:22:46;;;;;;;51.35;21.30;;;1.30;99.90;;;;;;5051734;28;20032;-46
2021/01/09 10:25:11;;;;;;;62.83;22.38;;;1.40;99.90;;;;;;5039616;28;20413;-48
2021/01/09 10:27:37;;;;;;;63.60;23.13;;;1.40;99.90;;;;;;5043763;28;20044;-47
2021/01/09 10:30:04;;;;;;;60.05;22.27;;;1.40;99.90;;;;;;5042338;28;20403;-50
2021/01/09 10:32:29;;;;;;;66.97;22.40;;;1.40;99.90;;;;;;5041507;28;20113;-49
2021/01/09 10:34:54;;;;;;;58.13;21.58;;;1.50;99.90;;;;;;5048729;28;20056;-47
2021/01/09 10:37:20;;;;;;;61.63;22.08;;;1.50;99.90;;;;;;5033608;28;20165;-46
2021/01/09 10:39:45;;;;;;;55.72;20.80;;;1.50;99.90;;;;;;5036590;28;20567;-48
2021/01/09 10:42:11;;;;;;;59.47;22.67;;;1.50;99.90;;;;;;5035091;28;20037;-48
2021/01/09 10:44:36;;;;;;;56.83;20.85;;;1.50;99.90;;;;;;5039251;28;20017;-47
2021/01/09 10:47:02;;;;;;;64.80;23.45;;;1.50;99.90;;;;;;5044493;28;20066;-46
2021/01/09 10:49:27;;;;;;;60.45;22.58;;;1.60;99.90;;;;;;5052570;28;20025;-47
2021/01/09 10:51:53;;;;;;;58.08;22.67;;;1.50;99.90;;;;;;5062525;28;20445;-46
2021/01/09 10:54:18;;;;;;;59.50;22.08;;;1.50;99.90;;;;;;5045795;28;20341;-47
2021/01/09 10:56:47;;;;;;;62.15;22.23;;;1.60;99.90;;;;;;5038465;28;20033;-47
2021/01/09 10:59:13;;;;;;;56.85;22.30;;;1.60;99.90;;;;;;5042952;28;20619;-46
2021/01/09 11:01:39;;;;;;;55.90;22.25;;;1.60;99.90;;;;;;5037884;28;20104;-47
2021/01/09 11:04:04;;;;;;;53.13;22.13;;;1.60;99.90;;;;;;5042677;28;20334;-46
2021/01/09 11:06:30;;;;;;;53.45;21.50;;;1.60;99.90;;;;;;5038263;28;20051;-47
2021/01/09 11:08:55;;;;;;;53.45;21.33;;;1.60;99.90;;;;;;5041413;28;20485;-46
2021/01/09 11:11:21;;;;;;;51.67;21.10;;;1.60;99.90;;;;;;5034506;28;20029;-47
2021/01/09 11:13:50;;;;;;;52.50;21.13;;;1.50;99.90;;;;;;5041635;28;20040;-46
2021/01/09 11:16:25;;;;;;;52.55;20.15;;;1.60;99.90;;;;;;5041460;28;20402;-49
2021/01/09 11:18:51;;;;;;;50.45;20.48;;;1.60;99.90;;;;;;5052493;28;20466;-49
2021/01/09 11:21:19;;;;;;;56.65;21.10;;;1.50;99.90;;;;;;5035330;28;20033;-47
2021/01/09 11:23:45;;;;;;;53.40;20.80;;;1.50;99.90;;;;;;5033284;28;20017;-47
2021/01/09 11:26:12;;;;;;;51.65;20.17;;;1.50;99.90;;;;;;5038286;28;20021;-47
2021/01/09 11:28:38;;;;;;;54.05;21.15;;;1.60;99.90;;;;;;5036664;28;20521;-47
2021/01/09 11:31:07;;;;;;;57.58;20.67;;;1.60;99.90;;;;;;5070490;28;20473;-46
2021/01/09 11:33:33;;;;;;;57.53;20.67;;;1.60;99.90;;;;;;5068533;28;20021;-46
2021/01/09 11:36:00;;;;;;;59.05;23.20;;;1.60;99.90;;;;;;5063189;28;20024;-49
2021/01/09 11:38:25;;;;;;;46.50;18.88;;;1.60;99.90;;;;;;5066004;28;20524;-46
2021/01/09 11:40:51;;;;;;;49.38;19.67;;;1.60;99.90;;;;;;5048548;28;20028;-47
2021/01/09 11:43:17;;;;;;;50.22;21.20;;;1.60;99.90;;;;;;5066641;28;20390;-46
2021/01/09 11:45:42;;;;;;;52.63;19.45;;;1.70;99.90;;;;;;5065877;28;20507;-49
2021/01/09 11:48:08;;;;;;;46.65;19.77;;;1.60;99.90;;;;;;5059149;28;20216;-48
2021/01/09 11:50:34;;;;;;;44.58;18.13;;;1.60;99.90;;;;;;5062381;28;20036;-47
2021/01/09 11:52:59;;;;;;;45.67;19.48;;;1.70;99.90;;;;;;5055602;28;20288;-47
2021/01/09 11:55:25;;;;;;;47.47;18.98;;;1.70;99.90;;;;;;5043381;28;20029;-47
2021/01/09 11:57:51;;;;;;;49.63;20.92;;;1.70;99.90;;;;;;5052636;28;20032;-47
2021/01/09 12:00:19;;;;;;;51.00;19.80;;;1.60;99.90;;;;;;5051725;28;20021;-49
2021/01/09 12:02:45;;;;;;;46.72;19.23;;;1.70;99.90;;;;;;5030096;28;20427;-46
2021/01/09 12:05:10;;;;;;;48.67;19.75;;;1.70;99.90;;;;;;5060702;28;20180;-47
2021/01/09 12:07:36;;;;;;;48.58;18.65;;;1.70;99.90;;;;;;5048919;28;20029;-47
2021/01/09 12:10:04;;;;;;;46.90;18.73;;;1.70;99.90;;;;;;5054013;28;20395;-47
2021/01/09 12:12:29;;;;;;;49.08;19.27;;;1.70;99.90;;;;;;5043084;28;20094;-47
2021/01/09 12:14:55;;;;;;;42.22;18.13;;;1.80;99.90;;;;;;5049154;28;20454;-50
2021/01/09 12:17:20;;;;;;;45.90;19.00;;;1.80;99.90;;;;;;5034794;28;20378;-47
2021/01/09 12:19:45;;;;;;;41.00;18.88;;;1.80;99.90;;;;;;5030986;28;20029;-47
2021/01/09 12:22:12;;;;;;;41.78;17.30;;;1.80;99.90;;;;;;5028426;28;20030;-48
2021/01/09 12:24:37;;;;;;;37.90;18.42;;;1.80;99.90;;;;;;5029224;28;20030;-46
2021/01/09 12:27:03;;;;;;;41.90;17.92;;;1.80;99.90;;;;;;5036225;28;20032;-46
2021/01/09 12:29:29;;;;;;;43.60;19.10;;;1.80;99.90;;;;;;5027620;28;20033;-45
2021/01/09 12:31:54;;;;;;;40.58;16.90;;;1.70;99.90;;;;;;5030604;28;20108;-48
2021/01/09 12:34:20;;;;;;;47.13;18.67;;;1.80;99.90;;;;;;5029045;28;20028;-46
2021/01/09 12:36:50;;;;;;;46.28;19.35;;;1.80;99.90;;;;;;5030420;28;20047;-48
2021/01/09 12:39:16;;;;;;;41.08;18.60;;;1.70;99.90;;;;;;5040239;28;20026;-48
2021/01/09 12:41:41;;;;;;;50.22;20.58;;;1.80;99.90;;;;;;5029521;28;20037;-47